This is the latest recevied weather packets stored in our database for station/object KQ4HEI. If no packets are shown the sender has not sent any weather packets the latest 10 day(s).
| Time | Temp. | Humidity | Pressure | Rain* | Wind** | Luminosity | Snow |
|---|---|---|---|---|---|---|---|
| 1788141693 | 23.89° C | 99% | 1015.9 hPa | 0 mm | - | - | - |
| 1788123092 | 33.33° C | 64% | 1014.6 hPa | 0 mm | - | - | - |
| 1788122492 | 33.33° C | 62% | 1014.7 hPa | 0 mm | - | - | - |
| 1788121892 | 33.89° C | 62% | 1014.8 hPa | 0 mm | - | - | - |
| 1788121292 | 32.78° C | 67% | 1014.9 hPa | 0 mm | - | - | - |
| 1788120692 | 33.89° C | 66% | 1015.1 hPa | 0 mm | - | - | - |
| 1788120092 | 33.89° C | 66% | 1015.1 hPa | 0 mm | - | - | - |
| 1788119492 | 33.33° C | 70% | 1015.2 hPa | 0 mm | - | - | - |
| 1788118292 | 31.11° C | 87% | 1015.9 hPa | 1.02 mm | - | - | - |
| 1788117692 | 33.33° C | 66% | 1016 hPa | 0 mm | - | - | - |
| 1788117092 | 35° C | 66% | 1016.1 hPa | 0 mm | - | - | - |
| 1788116492 | 32.78° C | 67% | 1016.2 hPa | 0 mm | - | - | - |
| 1788115892 | 32.78° C | 69% | 1016.2 hPa | 0 mm | - | - | - |
| 1788115292 | 33.33° C | 66% | 1016.3 hPa | 0 mm | - | - | - |
| 1788114692 | 33.33° C | 68% | 1016.4 hPa | 0 mm | - | - | - |
| 1788113493 | 33.89° C | 68% | 1016.7 hPa | 0 mm | - | - | - |
| 1788112892 | 33.33° C | 67% | 1016.7 hPa | 0 mm | - | - | - |
| 1788111092 | 32.22° C | 70% | 1017.2 hPa | 0 mm | - | - | - |
| 1788110492 | 33.33° C | 66% | 1017.2 hPa | 0 mm | - | - | - |
| 1788109891 | 33.33° C | 68% | 1017.1 hPa | 0 mm | - | - | - |
| 1788108692 | 32.78° C | 68% | 1017.4 hPa | 0 mm | - | - | - |
| 1788108092 | 32.78° C | 68% | 1017.5 hPa | 0 mm | - | - | - |
| 1788107492 | 32.22° C | 68% | 1017.8 hPa | 0 mm | - | - | - |
| 1788106892 | 31.67° C | 70% | 1017.9 hPa | 0 mm | - | - | - |
| 1788106292 | 32.22° C | 70% | 1017.9 hPa | 0 mm | - | - | - |
* Rain latest hour (hover to see other rain measurements)
** Current wind speed in m/s (hover to see current wind gust speed)